Time;durP1;ratioP1;P1;durP2;ratioP2;P2;SDS_P1;SDS_P2;PMS_P1;PMS_P2;Temp;Humidity;BMP_temperature;BMP_pressure;BME280_temperature;BME280_humidity;BME280_pressure;Samples;Min_cycle;Max_cycle;Signal;HPM_P1;HPM_P2
2021/01/05 00:01:50;;;;;;;20.00;13.23;;;1.40;99.90;;;;;;5043918;28;21115;-76
2021/01/05 00:04:15;;;;;;;22.67;13.03;;;1.40;99.90;;;;;;5044040;28;20210;-76
2021/01/05 00:06:41;;;;;;;22.40;12.87;;;1.40;99.90;;;;;;5043957;28;20177;-76
2021/01/05 00:09:06;;;;;;;19.27;11.83;;;1.30;99.90;;;;;;5040896;28;20178;-76
2021/01/05 00:11:32;;;;;;;25.83;14.03;;;1.30;99.90;;;;;;5024727;28;20185;-76
2021/01/05 00:13:57;;;;;;;24.80;12.83;;;1.40;99.90;;;;;;5024419;28;20552;-77
2021/01/05 00:16:28;;;;;;;22.50;13.53;;;1.40;99.90;;;;;;5041287;28;20282;-75
2021/01/05 00:18:53;;;;;;;18.90;12.40;;;1.40;99.90;;;;;;5042355;28;20648;-75
2021/01/05 00:21:19;;;;;;;22.80;12.37;;;1.40;99.90;;;;;;5022769;28;20503;-75
2021/01/05 00:23:44;;;;;;;20.90;11.83;;;1.30;99.90;;;;;;5043367;28;20197;-76
2021/01/05 00:26:10;;;;;;;25.20;13.20;;;1.30;99.90;;;;;;5040070;28;20547;-76
2021/01/05 00:28:35;;;;;;;24.10;13.97;;;1.30;99.90;;;;;;5042423;28;20202;-75
2021/01/05 00:31:01;;;;;;;20.50;12.63;;;1.30;99.90;;;;;;5041276;28;20181;-76
2021/01/05 00:33:27;;;;;;;20.67;12.73;;;1.30;99.90;;;;;;5041445;28;20207;-76
2021/01/05 00:35:52;;;;;;;26.13;13.20;;;1.40;99.90;;;;;;5042339;28;20398;-76
2021/01/05 00:38:18;;;;;;;24.30;12.77;;;1.40;99.90;;;;;;5040022;28;20185;-76
2021/01/05 00:40:43;;;;;;;27.27;13.30;;;1.40;99.90;;;;;;5043190;28;20274;-76
2021/01/05 00:43:09;;;;;;;24.87;12.67;;;1.30;99.90;;;;;;5039893;28;20231;-75
2021/01/05 00:45:38;;;;;;;26.27;12.40;;;1.30;99.90;;;;;;5042277;28;20179;-74
2021/01/05 00:48:06;;;;;;;18.63;12.60;;;1.30;99.90;;;;;;5040270;28;20177;-75
2021/01/05 00:50:33;;;;;;;22.57;12.57;;;1.20;99.90;;;;;;5043694;28;20468;-76
2021/01/05 00:52:59;;;;;;;22.17;12.00;;;1.30;99.90;;;;;;5041383;28;20490;-75
2021/01/05 00:55:24;;;;;;;23.10;13.60;;;1.30;99.90;;;;;;5041824;28;20432;-75
2021/01/05 00:57:50;;;;;;;23.27;13.30;;;1.30;99.90;;;;;;5039901;28;20576;-75
2021/01/05 01:00:22;;;;;;;24.47;12.37;;;1.30;99.90;;;;;;5043068;28;20205;-75
2021/01/05 01:02:49;;;;;;;23.20;11.13;;;1.40;99.90;;;;;;5038729;28;20220;-75
2021/01/05 01:05:15;;;;;;;28.70;13.83;;;1.40;99.90;;;;;;5039440;28;20769;-76
2021/01/05 01:07:41;;;;;;;23.10;12.87;;;1.30;99.90;;;;;;5042791;28;20405;-75
2021/01/05 01:10:07;;;;;;;25.23;13.17;;;1.30;99.90;;;;;;5039824;28;20425;-76
2021/01/05 01:12:32;;;;;;;24.90;11.87;;;1.40;99.90;;;;;;5039296;28;20554;-75
2021/01/05 01:14:58;;;;;;;24.47;11.93;;;1.40;99.90;;;;;;5041111;28;20396;-76
2021/01/05 01:17:25;;;;;;;22.33;12.27;;;1.40;99.90;;;;;;5041720;28;20292;-75
2021/01/05 01:19:50;;;;;;;24.00;13.30;;;1.40;99.90;;;;;;5039753;28;20233;-75
2021/01/05 01:22:18;;;;;;;22.00;11.50;;;1.40;99.90;;;;;;5042620;28;20909;-76
2021/01/05 01:24:43;;;;;;;23.00;11.87;;;1.40;99.90;;;;;;5039049;28;20708;-75
2021/01/05 01:27:09;;;;;;;24.60;13.17;;;1.40;99.90;;;;;;5042428;28;20418;-75
2021/01/05 01:29:34;;;;;;;23.23;12.97;;;1.40;99.90;;;;;;5039683;28;20177;-75
2021/01/05 01:32:00;;;;;;;23.40;12.37;;;1.40;99.90;;;;;;5041219;28;20273;-76
2021/01/05 01:34:26;;;;;;;27.20;14.00;;;1.40;99.90;;;;;;5041032;28;20718;-76
2021/01/05 01:37:05;;;;;;;23.83;13.60;;;1.40;99.90;;;;;;5040063;28;20178;-75
2021/01/05 01:39:31;;;;;;;19.70;12.50;;;1.40;99.90;;;;;;5040030;28;20431;-75
2021/01/05 01:41:59;;;;;;;23.03;13.07;;;1.40;99.90;;;;;;5040811;28;20641;-76
2021/01/05 01:44:27;;;;;;;23.73;13.13;;;1.40;99.90;;;;;;5041053;28;20417;-76
2021/01/05 01:46:56;;;;;;;26.73;15.17;;;1.40;99.90;;;;;;5039959;28;20765;-75
2021/01/05 01:49:22;;;;;;;20.03;12.80;;;1.50;99.90;;;;;;5041443;28;20424;-75
2021/01/05 01:51:49;;;;;;;26.47;14.43;;;1.40;99.90;;;;;;5039240;28;20442;-75
2021/01/05 01:54:45;;;;;;;26.00;14.53;;;1.40;99.90;;;;;;5042388;28;20448;-75
2021/01/05 01:57:46;;;;;;;20.57;11.90;;;1.40;99.90;;;;;;5035185;28;20499;-76
2021/01/05 02:00:29;;;;;;;22.43;12.40;;;1.40;99.90;;;;;;5035079;28;20435;-75
2021/01/05 02:03:17;;;;;;;24.20;13.90;;;1.40;99.90;;;;;;5037792;28;20479;-75
2021/01/05 02:06:06;;;;;;;24.33;13.00;;;1.40;99.90;;;;;;5035053;28;20407;-75
2021/01/05 02:08:58;;;;;;;26.23;13.80;;;1.40;99.90;;;;;;5039680;28;20426;-75
2021/01/05 02:11:27;;;;;;;27.50;13.63;;;1.50;99.90;;;;;;5037640;28;20791;-75
2021/01/05 02:14:21;;;;;;;26.67;14.80;;;1.50;99.90;;;;;;5042397;28;20508;-75
2021/01/05 02:17:15;;;;;;;24.10;14.23;;;1.40;99.90;;;;;;5039181;28;20391;-75
2021/01/05 02:19:48;;;;;;;30.17;14.83;;;1.50;99.90;;;;;;5041976;28;20439;-75
2021/01/05 02:22:25;;;;;;;27.80;14.03;;;1.50;99.90;;;;;;5038702;28;20432;-75
2021/01/05 02:25:10;;;;;;;31.57;13.90;;;1.60;99.90;;;;;;5040258;28;20424;-75
2021/01/05 02:27:44;;;;;;;24.17;13.10;;;1.50;99.90;;;;;;5042567;28;20392;-75
2021/01/05 02:30:15;;;;;;;27.33;14.47;;;1.60;99.90;;;;;;5045704;28;20446;-75
2021/01/05 02:32:43;;;;;;;31.50;16.03;;;1.60;99.90;;;;;;5042076;28;20396;-76
2021/01/05 02:35:34;;;;;;;36.67;16.27;;;1.60;99.90;;;;;;5045305;28;20391;-75
2021/01/05 02:38:21;;;;;;;32.33;16.63;;;1.50;99.90;;;;;;5042493;28;20997;-75
2021/01/05 02:41:08;;;;;;;24.17;14.27;;;1.50;99.90;;;;;;5038576;28;20874;-75
2021/01/05 02:43:44;;;;;;;27.03;15.70;;;1.40;99.90;;;;;;5042752;28;20407;-75
2021/01/05 02:46:16;;;;;;;28.60;15.27;;;1.40;99.90;;;;;;5045257;28;20422;-76
2021/01/05 02:49:19;;;;;;;28.40;14.83;;;1.40;99.90;;;;;;5020183;28;20395;-76
2021/01/05 02:52:23;;;;;;;28.00;15.00;;;1.40;99.90;;;;;;5036811;28;20436;-76
2021/01/05 02:55:13;;;;;;;30.30;17.80;;;1.50;99.90;;;;;;5042184;28;20547;-76
2021/01/05 02:58:08;;;;;;;37.60;17.20;;;1.50;99.90;;;;;;5041541;28;20432;-76
2021/01/05 03:00:58;;;;;;;35.07;18.10;;;1.50;99.90;;;;;;5042845;28;20482;-76
2021/01/05 03:03:41;;;;;;;35.40;14.87;;;1.40;99.90;;;;;;5040068;28;20441;-75
2021/01/05 03:06:44;;;;;;;28.43;15.07;;;1.50;99.90;;;;;;5042496;28;20420;-75
2021/01/05 03:09:12;;;;;;;31.07;16.97;;;1.50;99.90;;;;;;5044301;28;20420;-75
2021/01/05 03:12:12;;;;;;;29.50;16.50;;;1.40;99.90;;;;;;5041653;28;20516;-76
2021/01/05 03:15:01;;;;;;;33.03;16.33;;;1.40;99.90;;;;;;5043301;28;20440;-75
2021/01/05 03:17:36;;;;;;;26.57;15.57;;;1.40;99.90;;;;;;5035747;28;20844;-75
2021/01/05 03:20:13;;;;;;;37.33;18.30;;;1.40;99.90;;;;;;5043284;28;20472;-77
2021/01/05 03:22:49;;;;;;;35.50;16.30;;;1.40;99.90;;;;;;5041424;28;20399;-75
2021/01/05 03:25:17;;;;;;;29.40;15.90;;;1.40;99.90;;;;;;5026304;28;20420;-76
2021/01/05 03:27:43;;;;;;;35.83;15.70;;;1.40;99.90;;;;;;5019122;28;20399;-76
2021/01/05 03:30:23;;;;;;;33.60;15.63;;;1.40;99.90;;;;;;5043962;28;20523;-75
2021/01/05 03:32:49;;;;;;;28.30;14.43;;;1.40;99.90;;;;;;5037927;28;20535;-75
2021/01/05 03:35:15;;;;;;;33.20;16.97;;;1.40;99.90;;;;;;5044515;28;20400;-75
2021/01/05 03:37:40;;;;;;;32.67;16.77;;;1.30;99.90;;;;;;5041000;28;20429;-75
2021/01/05 03:40:09;;;;;;;34.33;16.97;;;1.40;99.90;;;;;;5043230;28;20210;-75
2021/01/05 03:42:35;;;;;;;28.43;15.30;;;1.40;99.90;;;;;;5041786;28;20174;-75
2021/01/05 03:45:01;;;;;;;28.47;16.23;;;1.40;99.90;;;;;;5042668;28;20393;-75
2021/01/05 03:47:26;;;;;;;31.97;15.40;;;1.40;99.90;;;;;;5043063;28;20427;-75
2021/01/05 03:49:52;;;;;;;28.30;16.07;;;1.40;99.90;;;;;;5041228;28;20241;-75
2021/01/05 03:52:17;;;;;;;29.60;15.57;;;1.50;99.90;;;;;;5044061;28;20578;-76
2021/01/05 03:54:43;;;;;;;27.83;14.33;;;1.40;99.90;;;;;;5022694;28;20208;-76
2021/01/05 03:57:08;;;;;;;28.50;15.93;;;1.40;99.90;;;;;;5043684;28;20177;-76
2021/01/05 03:59:34;;;;;;;33.17;15.97;;;1.40;99.90;;;;;;5041202;28;20667;-75
2021/01/05 04:01:59;;;;;;;28.80;15.80;;;1.50;99.90;;;;;;5042367;28;20177;-75
2021/01/05 04:04:25;;;;;;;30.33;15.43;;;1.40;99.90;;;;;;5039710;28;20200;-76
2021/01/05 04:06:50;;;;;;;29.70;16.27;;;1.40;99.90;;;;;;5043311;28;20176;-75
2021/01/05 04:09:16;;;;;;;29.53;16.03;;;1.40;99.90;;;;;;5022456;28;20267;-75
2021/01/05 04:11:41;;;;;;;31.70;16.10;;;1.50;99.90;;;;;;5043416;28;20178;-75
2021/01/05 04:14:07;;;;;;;28.13;15.97;;;1.50;99.90;;;;;;5040946;28;20225;-75
2021/01/05 04:16:32;;;;;;;30.37;15.57;;;1.50;99.90;;;;;;5042213;28;20180;-75
2021/01/05 04:18:59;;;;;;;32.87;17.10;;;1.50;99.90;;;;;;5039390;28;20277;-75
2021/01/05 04:21:24;;;;;;;29.60;16.30;;;1.50;99.90;;;;;;5042527;28;20211;-75
2021/01/05 04:23:50;;;;;;;32.10;17.07;;;1.50;99.90;;;;;;5022434;28;20525;-76
2021/01/05 04:26:15;;;;;;;30.53;16.07;;;1.50;99.90;;;;;;5043630;28;20408;-75
2021/01/05 04:28:41;;;;;;;29.33;16.60;;;1.50;99.90;;;;;;5039705;28;20173;-76
2021/01/05 04:31:06;;;;;;;34.27;15.90;;;1.50;99.90;;;;;;5042709;28;20195;-75
2021/01/05 04:33:32;;;;;;;33.17;17.03;;;1.50;99.90;;;;;;5041133;28;20733;-76
2021/01/05 04:35:57;;;;;;;33.33;16.20;;;1.60;99.90;;;;;;5041298;28;20233;-76
2021/01/05 04:38:22;;;;;;;33.37;18.63;;;1.50;99.90;;;;;;5041491;28;20235;-76
2021/01/05 04:40:48;;;;;;;36.00;17.60;;;1.50;99.90;;;;;;5022013;28;20710;-75
2021/01/05 04:43:25;;;;;;;36.60;18.60;;;1.60;99.90;;;;;;5043177;28;20198;-75
2021/01/05 04:46:04;;;;;;;29.80;16.77;;;1.60;99.90;;;;;;5037378;28;20764;-75
2021/01/05 04:49:05;;;;;;;30.57;19.03;;;1.50;99.90;;;;;;5041342;28;20428;-76
2021/01/05 04:51:58;;;;;;;27.50;17.07;;;1.60;99.90;;;;;;5033916;28;20550;-76
2021/01/05 04:54:32;;;;;;;27.47;16.80;;;1.60;99.90;;;;;;5037878;28;20456;-75
2021/01/05 04:57:19;;;;;;;36.10;17.70;;;1.60;99.90;;;;;;5041470;28;20452;-76
2021/01/05 04:59:47;;;;;;;31.67;18.03;;;1.60;99.90;;;;;;5035464;28;20886;-76
2021/01/05 05:02:52;;;;;;;30.87;16.47;;;1.60;99.90;;;;;;5035636;28;20426;-75
2021/01/05 05:05:24;;;;;;;34.90;19.27;;;1.60;99.90;;;;;;5021891;28;20469;-76
2021/01/05 05:08:08;;;;;;;32.00;17.90;;;1.60;99.90;;;;;;5024481;28;20464;-76
2021/01/05 05:10:40;;;;;;;36.50;16.70;;;1.60;99.90;;;;;;5041503;28;20470;-76
2021/01/05 05:13:29;;;;;;;30.30;16.73;;;1.60;99.90;;;;;;5040247;28;20452;-76
2021/01/05 05:16:22;;;;;;;30.40;16.47;;;1.60;99.90;;;;;;5037958;28;20988;-76
2021/01/05 05:18:50;;;;;;;30.37;16.03;;;1.60;99.90;;;;;;5022056;28;20906;-76
2021/01/05 05:21:31;;;;;;;30.93;16.03;;;1.60;99.90;;;;;;5035814;28;20430;-76
2021/01/05 05:24:22;;;;;;;28.80;15.83;;;1.60;99.90;;;;;;5038478;28;20938;-75
2021/01/05 05:27:24;;;;;;;35.03;16.83;;;1.70;99.90;;;;;;5035875;28;20415;-76
2021/01/05 05:29:55;;;;;;;32.10;17.37;;;1.70;99.90;;;;;;5036280;28;20966;-75
2021/01/05 05:32:39;;;;;;;30.10;17.30;;;1.60;99.90;;;;;;5042229;28;20455;-77
2021/01/05 05:35:04;;;;;;;35.77;16.17;;;1.70;99.90;;;;;;5041528;28;20915;-76
2021/01/05 05:37:56;;;;;;;28.97;16.80;;;1.70;99.90;;;;;;5040788;28;20741;-76
2021/01/05 05:40:37;;;;;;;33.33;16.07;;;1.60;99.90;;;;;;5036883;28;20206;-76
2021/01/05 05:43:33;;;;;;;32.77;16.80;;;1.60;99.90;;;;;;5040537;28;20434;-76
2021/01/05 05:46:08;;;;;;;37.50;17.77;;;1.60;99.90;;;;;;5038627;28;20406;-75
2021/01/05 05:48:58;;;;;;;30.97;16.00;;;1.60;99.90;;;;;;5040839;28;20515;-75
2021/01/05 05:51:41;;;;;;;25.83;16.07;;;1.60;99.90;;;;;;5041313;28;20453;-76
2021/01/05 05:54:16;;;;;;;34.57;16.70;;;1.70;99.90;;;;;;5043553;28;20981;-75
2021/01/05 05:57:26;;;;;;;31.53;17.10;;;1.70;99.90;;;;;;5046179;28;20386;-75
2021/01/05 06:00:08;;;;;;;36.50;16.80;;;1.60;99.90;;;;;;5040155;28;20805;-76
2021/01/05 06:02:34;;;;;;;34.93;16.40;;;1.60;99.90;;;;;;5026051;28;20402;-75
2021/01/05 06:05:02;;;;;;;31.30;16.23;;;1.60;99.90;;;;;;5044296;28;20384;-76
2021/01/05 06:07:28;;;;;;;30.60;16.77;;;1.60;99.90;;;;;;5044655;28;20417;-76
2021/01/05 06:09:53;;;;;;;30.60;16.17;;;1.60;99.90;;;;;;5043291;28;20432;-76
2021/01/05 06:12:19;;;;;;;35.93;19.07;;;1.60;99.90;;;;;;5045791;28;21082;-77
2021/01/05 06:14:44;;;;;;;36.53;19.50;;;1.60;99.90;;;;;;5042286;28;20630;-75
2021/01/05 06:17:10;;;;;;;32.63;16.63;;;1.60;99.90;;;;;;5045648;28;20245;-76
2021/01/05 06:19:35;;;;;;;33.30;17.80;;;1.60;99.90;;;;;;5043064;28;20271;-77
2021/01/05 06:22:01;;;;;;;29.33;16.60;;;1.60;99.90;;;;;;5044341;28;20329;-76
2021/01/05 06:24:26;;;;;;;26.70;16.03;;;1.60;99.90;;;;;;5044401;28;20241;-76
2021/01/05 06:26:52;;;;;;;29.37;16.67;;;1.70;99.90;;;;;;5042801;28;20187;-77
2021/01/05 06:29:17;;;;;;;25.93;16.23;;;1.70;99.90;;;;;;5045695;28;20524;-76
2021/01/05 06:31:43;;;;;;;30.03;16.60;;;1.70;99.90;;;;;;5038177;28;20180;-76
2021/01/05 06:34:08;;;;;;;26.23;15.07;;;1.80;99.90;;;;;;5027145;28;20250;-77
2021/01/05 06:36:34;;;;;;;23.60;14.17;;;1.80;99.90;;;;;;5023518;28;20182;-75
2021/01/05 06:39:00;;;;;;;28.33;16.13;;;1.80;99.90;;;;;;5044004;28;20186;-76
2021/01/05 06:41:26;;;;;;;35.43;16.50;;;1.80;99.90;;;;;;5025375;28;20206;-75
2021/01/05 06:43:51;;;;;;;27.30;15.07;;;1.80;99.90;;;;;;5026811;28;20439;-76
2021/01/05 06:46:17;;;;;;;29.70;17.00;;;1.80;99.90;;;;;;5024372;28;20790;-76
2021/01/05 06:48:42;;;;;;;30.40;15.10;;;1.70;99.90;;;;;;5027260;28;20173;-76
2021/01/05 06:51:08;;;;;;;29.60;15.30;;;1.70;99.90;;;;;;5041443;28;20287;-76
2021/01/05 06:53:33;;;;;;;33.57;17.90;;;1.70;99.90;;;;;;5042647;28;20213;-76
2021/01/05 06:55:59;;;;;;;32.37;17.00;;;1.70;99.90;;;;;;5043471;28;20186;-75
2021/01/05 06:58:24;;;;;;;35.33;17.63;;;1.80;99.90;;;;;;5043918;28;20602;-76
2021/01/05 07:00:50;;;;;;;28.27;16.77;;;1.70;99.90;;;;;;5040895;28;20703;-75
2021/01/05 07:03:15;;;;;;;28.33;16.00;;;1.70;99.90;;;;;;5045196;28;20229;-75
2021/01/05 07:05:41;;;;;;;26.47;16.40;;;1.70;99.90;;;;;;5041573;28;20270;-75
2021/01/05 07:08:06;;;;;;;29.73;16.70;;;1.70;99.90;;;;;;5026241;28;20604;-75
2021/01/05 07:10:32;;;;;;;29.87;16.30;;;1.70;99.90;;;;;;5042834;28;20256;-76
2021/01/05 07:12:57;;;;;;;30.83;16.20;;;1.70;99.90;;;;;;5042743;28;20289;-76
2021/01/05 07:15:23;;;;;;;24.17;16.17;;;1.80;99.90;;;;;;5044039;28;20627;-71
2021/01/05 07:17:48;;;;;;;34.87;17.10;;;1.80;99.90;;;;;;5041234;28;20233;-72
2021/01/05 07:20:15;;;;;;;28.07;16.90;;;1.80;99.90;;;;;;5044656;28;20248;-72
2021/01/05 07:22:41;;;;;;;26.33;15.67;;;1.90;99.90;;;;;;5041344;28;20668;-72
2021/01/05 07:25:10;;;;;;;27.07;16.37;;;1.90;99.90;;;;;;5043861;28;20419;-72
2021/01/05 07:27:36;;;;;;;27.00;15.03;;;1.90;99.90;;;;;;5042435;28;20214;-72
2021/01/05 07:30:01;;;;;;;24.30;15.60;;;1.90;99.90;;;;;;5042745;28;20966;-72
2021/01/05 07:32:27;;;;;;;25.50;14.80;;;1.90;99.90;;;;;;5042961;28;20185;-72
2021/01/05 07:34:52;;;;;;;26.20;14.37;;;2.00;99.90;;;;;;5041217;28;20178;-72
2021/01/05 07:37:22;;;;;;;28.50;14.43;;;2.00;99.90;;;;;;5044259;28;20613;-72
2021/01/05 07:39:48;;;;;;;21.17;13.83;;;2.00;99.90;;;;;;5040143;28;20666;-72
2021/01/05 07:42:21;;;;;;;28.20;14.17;;;2.00;99.90;;;;;;5044128;28;20520;-73
2021/01/05 07:44:49;;;;;;;24.00;14.00;;;2.00;99.90;;;;;;5019251;28;20448;-73
2021/01/05 07:47:16;;;;;;;25.47;14.73;;;2.00;99.90;;;;;;5036532;28;20881;-72
2021/01/05 07:49:42;;;;;;;23.97;14.00;;;2.00;99.90;;;;;;5040361;28;20432;-71
2021/01/05 07:52:18;;;;;;;25.60;14.57;;;2.10;99.90;;;;;;5043096;28;21010;-72
2021/01/05 07:54:43;;;;;;;35.47;15.23;;;2.00;99.90;;;;;;5036402;28;20409;-72
2021/01/05 07:57:09;;;;;;;22.00;14.17;;;2.10;99.90;;;;;;5043451;28;20928;-73
2021/01/05 07:59:34;;;;;;;23.27;14.20;;;2.00;99.90;;;;;;5041251;28;20179;-72
2021/01/05 08:02:00;;;;;;;23.33;13.17;;;2.10;99.90;;;;;;5041985;28;20171;-73
2021/01/05 08:04:25;;;;;;;26.90;13.33;;;2.10;99.90;;;;;;5042483;28;20212;-73
2021/01/05 08:06:51;;;;;;;26.57;14.17;;;2.10;99.90;;;;;;5040487;28;20208;-73
2021/01/05 08:09:16;;;;;;;24.77;14.30;;;2.10;99.90;;;;;;5043437;28;20204;-74
2021/01/05 08:11:42;;;;;;;22.60;14.23;;;2.00;99.90;;;;;;5040021;28;20200;-72
2021/01/05 08:14:07;;;;;;;23.00;13.27;;;2.10;99.90;;;;;;5042765;28;20635;-72
2021/01/05 08:16:33;;;;;;;21.87;13.30;;;2.10;99.90;;;;;;5041586;28;20218;-74
2021/01/05 08:18:58;;;;;;;23.37;12.80;;;2.00;99.90;;;;;;5041151;28;20646;-73
2021/01/05 08:21:27;;;;;;;18.40;12.93;;;2.00;99.90;;;;;;5042503;28;20209;-72
2021/01/05 08:23:53;;;;;;;19.73;13.13;;;2.00;99.90;;;;;;5040491;28;20735;-73
2021/01/05 08:26:19;;;;;;;20.50;13.13;;;2.00;99.90;;;;;;5043456;28;20492;-72
2021/01/05 08:28:46;;;;;;;20.93;13.60;;;2.00;99.90;;;;;;5021693;28;20424;-72
2021/01/05 08:31:11;;;;;;;20.67;12.70;;;2.00;99.90;;;;;;5043462;28;20180;-72
2021/01/05 08:33:37;;;;;;;26.37;13.47;;;2.10;99.90;;;;;;5040476;28;20443;-70
2021/01/05 08:36:03;;;;;;;19.47;11.57;;;2.00;99.90;;;;;;5041684;28;20187;-69
2021/01/05 08:38:28;;;;;;;20.00;12.30;;;2.10;99.90;;;;;;5041306;28;20182;-70
2021/01/05 08:40:54;;;;;;;19.40;12.73;;;2.10;99.90;;;;;;5033984;28;20244;-69
2021/01/05 08:43:19;;;;;;;18.70;12.30;;;2.00;99.90;;;;;;5038180;28;20216;-69
2021/01/05 08:45:45;;;;;;;24.93;13.57;;;2.00;99.90;;;;;;5041551;28;20193;-70
2021/01/05 08:48:10;;;;;;;19.20;13.07;;;2.10;99.90;;;;;;5040491;28;20598;-71
2021/01/05 08:50:36;;;;;;;20.40;12.30;;;2.00;99.90;;;;;;5043300;28;20600;-71
2021/01/05 08:53:05;;;;;;;27.97;13.37;;;2.10;99.90;;;;;;5026120;28;20205;-73
2021/01/05 08:55:37;;;;;;;20.00;12.10;;;2.10;99.90;;;;;;5041368;28;20545;-71
2021/01/05 08:58:04;;;;;;;21.87;13.90;;;2.10;99.90;;;;;;5022995;28;20430;-70
2021/01/05 09:00:30;;;;;;;24.90;15.10;;;2.10;99.90;;;;;;5023086;28;20522;-72
2021/01/05 09:02:55;;;;;;;22.03;14.10;;;2.10;99.90;;;;;;5041554;28;20855;-72
2021/01/05 09:05:23;;;;;;;21.73;13.47;;;2.10;99.90;;;;;;5039692;28;20664;-72
2021/01/05 09:07:49;;;;;;;23.50;13.43;;;2.10;99.90;;;;;;5042457;28;20179;-72
2021/01/05 09:10:17;;;;;;;24.33;13.80;;;2.10;99.90;;;;;;5039011;28;20407;-72
2021/01/05 09:12:43;;;;;;;22.47;13.27;;;2.20;99.90;;;;;;5035062;28;20433;-71
2021/01/05 09:15:13;;;;;;;23.10;13.50;;;2.20;99.90;;;;;;5041968;28;20432;-72
2021/01/05 09:17:38;;;;;;;22.07;13.97;;;2.20;99.90;;;;;;5039445;28;20271;-71
2021/01/05 09:20:04;;;;;;;22.13;12.93;;;2.20;99.90;;;;;;5040536;28;20547;-72
2021/01/05 09:22:30;;;;;;;25.63;14.90;;;2.20;99.90;;;;;;5040768;28;20186;-72
2021/01/05 09:24:55;;;;;;;28.13;14.97;;;2.20;99.90;;;;;;5039446;28;20513;-72
2021/01/05 09:27:21;;;;;;;28.67;14.70;;;2.20;99.90;;;;;;5042212;28;20200;-73
2021/01/05 09:29:46;;;;;;;23.93;14.90;;;2.20;99.90;;;;;;5038753;28;20178;-72
2021/01/05 09:32:12;;;;;;;23.10;15.03;;;2.20;99.90;;;;;;5042013;28;20184;-73
2021/01/05 09:34:37;;;;;;;20.37;13.10;;;2.20;99.90;;;;;;5039659;28;20211;-72
2021/01/05 09:37:05;;;;;;;26.33;14.70;;;2.20;99.90;;;;;;5040866;28;20177;-73
2021/01/05 09:39:30;;;;;;;23.63;14.33;;;2.30;99.90;;;;;;5040320;28;20177;-73
2021/01/05 09:42:02;;;;;;;28.00;14.17;;;2.20;99.90;;;;;;5039734;28;20431;-72
2021/01/05 09:44:28;;;;;;;21.33;13.70;;;2.20;99.90;;;;;;5040883;28;20228;-72
2021/01/05 09:46:56;;;;;;;24.33;13.23;;;2.20;99.90;;;;;;5039479;28;20432;-72
2021/01/05 09:49:23;;;;;;;27.40;15.83;;;2.20;99.90;;;;;;5042174;28;20511;-72
2021/01/05 09:51:49;;;;;;;21.03;14.53;;;2.30;99.90;;;;;;5042080;28;20449;-72
2021/01/05 09:54:15;;;;;;;29.70;15.03;;;2.30;99.90;;;;;;5038626;28;20547;-73
2021/01/05 09:56:42;;;;;;;24.57;14.53;;;2.30;99.90;;;;;;5023934;28;20187;-73
2021/01/05 09:59:07;;;;;;;26.23;14.17;;;2.40;99.90;;;;;;5039360;28;20398;-73
2021/01/05 10:01:34;;;;;;;25.93;12.70;;;2.40;99.90;;;;;;5023076;28;20805;-73
2021/01/05 10:03:59;;;;;;;23.37;14.20;;;2.50;99.90;;;;;;5040515;28;20255;-73
2021/01/05 10:06:29;;;;;;;20.83;13.50;;;2.50;99.90;;;;;;5039667;28;20414;-73
2021/01/05 10:08:55;;;;;;;24.37;13.67;;;2.50;99.90;;;;;;5040773;28;20193;-73
2021/01/05 10:11:20;;;;;;;22.50;14.60;;;2.60;99.90;;;;;;5039080;28;20449;-73
2021/01/05 10:13:46;;;;;;;22.10;14.60;;;2.60;99.90;;;;;;5041954;28;20197;-73
2021/01/05 10:16:12;;;;;;;22.90;13.80;;;2.50;99.90;;;;;;5038529;28;20182;-73
2021/01/05 10:18:37;;;;;;;25.70;15.10;;;2.60;99.90;;;;;;5040925;28;20190;-72
2021/01/05 10:21:03;;;;;;;24.53;13.90;;;2.50;99.90;;;;;;5039695;28;21031;-73
2021/01/05 10:23:29;;;;;;;24.53;14.33;;;2.50;99.90;;;;;;5040079;28;20206;-73
2021/01/05 10:25:54;;;;;;;27.17;15.30;;;2.50;99.90;;;;;;5040920;28;20207;-73
2021/01/05 10:28:20;;;;;;;30.13;15.60;;;2.50;99.90;;;;;;5038756;28;20182;-73
2021/01/05 10:30:45;;;;;;;24.90;14.80;;;2.50;99.90;;;;;;5041659;28;20183;-73
2021/01/05 10:33:11;;;;;;;26.47;14.67;;;2.50;99.90;;;;;;5037380;28;20301;-73
2021/01/05 10:35:36;;;;;;;23.23;13.60;;;2.60;99.90;;;;;;5041616;28;20209;-73
2021/01/05 10:38:02;;;;;;;25.90;15.23;;;2.60;99.90;;;;;;5043466;28;20542;-74
2021/01/05 10:40:27;;;;;;;23.40;15.30;;;2.60;99.90;;;;;;5042874;28;20673;-73
2021/01/05 10:42:53;;;;;;;23.03;14.13;;;2.60;99.90;;;;;;5044590;28;20194;-73
2021/01/05 10:45:25;;;;;;;27.33;15.50;;;2.70;99.90;;;;;;5041774;28;20206;-73
2021/01/05 10:47:52;;;;;;;27.27;16.20;;;2.70;99.90;;;;;;5044723;28;20188;-73
2021/01/05 10:50:22;;;;;;;32.50;17.37;;;2.70;99.90;;;;;;5041471;28;20430;-72
2021/01/05 10:52:48;;;;;;;27.03;15.40;;;2.70;99.90;;;;;;5037942;28;20433;-73
2021/01/05 10:55:16;;;;;;;26.70;15.70;;;2.80;99.90;;;;;;5036908;28;20508;-73
2021/01/05 10:57:42;;;;;;;26.07;14.20;;;2.70;99.90;;;;;;5041745;28;20399;-73
2021/01/05 11:00:08;;;;;;;24.73;15.90;;;2.70;99.90;;;;;;5043627;28;20431;-73
2021/01/05 11:02:34;;;;;;;27.97;16.10;;;2.80;99.90;;;;;;5042716;28;20473;-74
2021/01/05 11:05:00;;;;;;;27.50;14.90;;;2.80;99.90;;;;;;5042839;28;20498;-73
2021/01/05 11:07:25;;;;;;;25.17;13.93;;;2.80;99.90;;;;;;5043930;28;20185;-73
2021/01/05 11:09:51;;;;;;;26.50;14.80;;;2.80;99.90;;;;;;5041308;28;21006;-74
2021/01/05 11:12:21;;;;;;;24.30;14.90;;;2.80;99.90;;;;;;5044770;28;20181;-73
2021/01/05 11:14:47;;;;;;;26.17;14.80;;;2.90;99.90;;;;;;5037464;28;20202;-73
2021/01/05 11:17:12;;;;;;;27.30;15.33;;;2.90;99.90;;;;;;5044656;28;20416;-73
2021/01/05 11:19:40;;;;;;;24.43;14.93;;;2.90;99.90;;;;;;5041521;28;20189;-73
2021/01/05 11:22:09;;;;;;;26.60;15.47;;;3.00;99.90;;;;;;5043494;28;20705;-73
2021/01/05 11:24:37;;;;;;;24.73;14.63;;;2.90;99.90;;;;;;5042036;28;20475;-73
2021/01/05 11:27:03;;;;;;;27.67;15.80;;;2.90;99.90;;;;;;5042835;28;20517;-73
2021/01/05 11:29:29;;;;;;;28.50;15.53;;;2.90;99.90;;;;;;5042673;28;20407;-72
2021/01/05 11:32:00;;;;;;;28.27;14.50;;;2.90;99.90;;;;;;5041703;28;20739;-73
2021/01/05 11:34:26;;;;;;;24.57;13.90;;;2.80;99.90;;;;;;5043473;28;20193;-74
2021/01/05 11:36:52;;;;;;;23.10;15.00;;;2.90;99.90;;;;;;5041109;28;20431;-74
2021/01/05 11:39:19;;;;;;;23.57;13.10;;;2.90;99.90;;;;;;5044083;28;20425;-74
2021/01/05 11:41:45;;;;;;;21.90;14.37;;;2.90;99.90;;;;;;5036603;28;20679;-74
2021/01/05 11:44:15;;;;;;;22.93;15.43;;;2.80;99.90;;;;;;5043613;28;20422;-73
2021/01/05 11:46:41;;;;;;;25.70;14.10;;;2.80;99.90;;;;;;5040576;28;20459;-73
2021/01/05 11:49:07;;;;;;;24.10;13.73;;;2.80;99.90;;;;;;5043038;28;20424;-73
2021/01/05 11:51:35;;;;;;;24.67;14.00;;;2.80;99.90;;;;;;5041958;28;20694;-73
2021/01/05 11:54:01;;;;;;;25.73;15.23;;;2.80;99.90;;;;;;5041650;28;20675;-74
2021/01/05 11:56:29;;;;;;;27.37;14.37;;;2.80;99.90;;;;;;5042774;28;20430;-74
2021/01/05 11:58:55;;;;;;;27.00;14.37;;;2.80;99.90;;;;;;5040903;28;20494;-72
2021/01/05 12:01:21;;;;;;;27.37;13.80;;;2.80;99.90;;;;;;5043793;28;20521;-73
2021/01/05 12:03:47;;;;;;;30.27;16.10;;;2.90;99.90;;;;;;5040084;28;20425;-72
2021/01/05 12:06:18;;;;;;;22.47;13.50;;;2.90;99.90;;;;;;5043954;28;20754;-72
2021/01/05 12:08:44;;;;;;;29.73;16.53;;;2.90;99.90;;;;;;5036184;28;20480;-72
2021/01/05 12:11:31;;;;;;;28.87;15.40;;;3.00;99.90;;;;;;5043075;28;20407;-73
2021/01/05 12:13:57;;;;;;;25.03;13.80;;;3.00;99.90;;;;;;5038872;28;20782;-72
2021/01/05 12:16:25;;;;;;;29.97;14.47;;;3.00;99.90;;;;;;5042976;28;20457;-73
2021/01/05 12:18:52;;;;;;;24.60;14.97;;;3.00;99.90;;;;;;5040032;28;20426;-73
2021/01/05 12:21:24;;;;;;;27.40;16.77;;;3.00;99.90;;;;;;5043381;28;20460;-73
2021/01/05 12:23:50;;;;;;;24.03;14.70;;;3.10;99.90;;;;;;5036887;28;20825;-72
2021/01/05 12:26:35;;;;;;;24.20;15.07;;;3.10;99.90;;;;;;5043496;28;20511;-73
2021/01/05 12:29:04;;;;;;;28.37;15.20;;;3.10;99.90;;;;;;5039813;28;20206;-73
2021/01/05 12:31:29;;;;;;;25.30;15.30;;;3.10;99.90;;;;;;5041584;28;20802;-73
2021/01/05 12:33:55;;;;;;;21.03;13.43;;;3.10;99.90;;;;;;5040626;28;20424;-75
2021/01/05 12:36:30;;;;;;;23.87;14.87;;;3.10;99.90;;;;;;5042745;28;20212;-73
2021/01/05 12:38:56;;;;;;;20.00;13.70;;;3.10;99.90;;;;;;5040187;28;20777;-74
2021/01/05 12:41:27;;;;;;;21.07;13.33;;;3.10;99.90;;;;;;5042358;28;20442;-73
2021/01/05 12:43:53;;;;;;;26.00;14.90;;;3.10;99.90;;;;;;5040067;28;20905;-73
2021/01/05 12:46:26;;;;;;;22.00;14.23;;;3.10;99.90;;;;;;5043210;28;20416;-74
2021/01/05 12:48:52;;;;;;;22.30;14.10;;;3.10;99.90;;;;;;5036766;28;20252;-73
2021/01/05 12:51:40;;;;;;;26.43;15.27;;;2.90;99.90;;;;;;5042963;28;20780;-73